Main page
METAR-TAF:

METAR-TAF

Airports :

Malé, Hulhule Island, Maldives

Velana International Airport

latitude: 04-12N, longitude: 073-32E, elevation: 2 m

Current weather observation

The report was made 1 hour and 4 minutes ago, at 14:00 UTC
Wind 4 kt from the West
Temperature 30°C
Humidity 75%
Pressure 1011 hPa
Visibility 10 km or more
Few clouds at a height of 1800 ft
Few clouds at a height of 1900 ft, Cumulonimbus.

METAR: VRMM 291400Z 27004KT 9999 FEW018 FEW019CB 30/25 Q1011 CB W NOSIG

Time: 20:04 (15:04 UTC)

Forecast

The report was made 4 hours and 4 minutes ago, at 11:00 UTC
Forecast valid from 29 at 12 UTC to 30 at 18 UTC
Wind 6 kt from the West
Visibility 10 km or more
Few clouds at a height of 1800 ft, Cumulonimbus.

TAF: VRMM 291100Z 2912/3018 27006KT 9999 FEW018CB

Weather observations and forecasts of more than 4000 airports (METAR and TAF reports).

The available stations are represented by yellow and red dots on the map.

Hover mouse over dot to see the name of the station.

Then click to see weather observations and forecasts.

To change the map : click on the green buttons with a black cross to zoom in, on the green button with a dash to zoom out, or on the green arrows for adjacent maps.


METAR-TAF: